Time;durP1;ratioP1;P1;durP2;ratioP2;P2;SDS_P1;SDS_P2;PMS_P1;PMS_P2;Temp;Humidity;BMP_temperature;BMP_pressure;BME280_temperature;BME280_humidity;BME280_pressure;Samples;Min_cycle;Max_cycle;Signal;HPM_P1;HPM_P2
2022/11/18 00:00:28;;;;;;;69.37;20.07;;;5.30;99.90;;;;;;5060297;28;20543;-80
2022/11/18 00:02:57;;;;;;;43.53;14.47;;;5.30;99.90;;;;;;5065866;28;21205;-80
2022/11/18 00:05:24;;;;;;;126.00;33.77;;;5.30;99.90;;;;;;5062457;28;20465;-80
2022/11/18 00:07:51;;;;;;;68.17;21.00;;;5.40;99.90;;;;;;5059337;28;20467;-79
2022/11/18 00:10:18;;;;;;;31.97;14.70;;;5.30;99.90;;;;;;5054211;28;20444;-79
2022/11/18 00:15:29;;;;;;;48.37;18.10;;;5.20;99.90;;;;;;5056123;28;20567;-80
2022/11/18 00:17:57;;;;;;;43.57;16.57;;;5.20;99.90;;;;;;5056401;28;20483;-79
2022/11/18 00:20:24;;;;;;;31.87;13.80;;;5.30;99.90;;;;;;5046741;28;20463;-78
2022/11/18 00:22:51;;;;;;;43.50;13.90;;;5.20;99.90;;;;;;5056196;28;20520;-78
2022/11/18 00:25:18;;;;;;;68.27;19.87;;;5.20;99.90;;;;;;5056351;28;20470;-79
2022/11/18 00:27:45;;;;;;;43.77;15.90;;;5.20;99.90;;;;;;5049036;28;20585;-78
2022/11/18 00:30:12;;;;;;;45.87;17.97;;;5.20;99.90;;;;;;5048993;28;20822;-78
2022/11/18 00:32:39;;;;;;;57.93;18.37;;;5.30;99.90;;;;;;5045992;28;20475;-79
2022/11/18 00:35:09;;;;;;;85.80;27.13;;;5.30;99.90;;;;;;5049711;28;20510;-79
2022/11/18 00:37:36;;;;;;;85.83;19.40;;;5.30;99.90;;;;;;5050390;28;20805;-79
2022/11/18 00:40:03;;;;;;;91.73;22.13;;;5.30;99.90;;;;;;5055741;28;20509;-79
2022/11/18 00:45:15;;;;;;;48.87;15.80;;;5.30;99.90;;;;;;5047383;28;20560;-80
2022/11/18 00:47:41;;;;;;;38.20;15.47;;;5.30;99.90;;;;;;5051761;28;20616;-80
2022/11/18 00:50:10;;;;;;;62.30;16.37;;;5.40;99.90;;;;;;5052357;28;20943;-80
2022/11/18 00:52:37;;;;;;;42.70;14.67;;;5.40;99.90;;;;;;5050541;28;20484;-80
2022/11/18 00:55:05;;;;;;;69.20;17.20;;;5.50;99.90;;;;;;5051249;28;20464;-80
2022/11/18 00:57:32;;;;;;;44.43;14.30;;;5.50;99.90;;;;;;5052317;28;20456;-80
2022/11/18 00:59:59;;;;;;;123.77;22.90;;;5.50;99.90;;;;;;5057425;28;20990;-80
2022/11/18 01:02:26;;;;;;;108.23;24.03;;;5.50;99.90;;;;;;5049311;28;20537;-80
2022/11/18 01:04:53;;;;;;;146.60;28.83;;;5.50;99.90;;;;;;5062304;28;20470;-80
2022/11/18 01:07:21;;;;;;;235.57;39.27;;;5.50;99.90;;;;;;5049053;28;20482;-80
2022/11/18 01:09:48;;;;;;;269.97;42.23;;;5.40;99.90;;;;;;5057631;28;20471;-80
2022/11/18 01:14:59;;;;;;;51.33;17.73;;;5.50;99.90;;;;;;5057885;28;20476;-80
2022/11/18 01:17:29;;;;;;;52.43;17.87;;;5.40;99.90;;;;;;5057289;28;20480;-81
2022/11/18 01:19:56;;;;;;;30.60;15.87;;;5.40;99.90;;;;;;5055776;28;20467;-80
2022/11/18 01:22:25;;;;;;;69.10;24.00;;;5.40;99.90;;;;;;5046873;28;20463;-81
2022/11/18 01:24:52;;;;;;;28.77;12.77;;;5.40;99.90;;;;;;5053837;28;21231;-80
2022/11/18 01:27:18;;;;;;;39.30;15.20;;;5.50;99.90;;;;;;5051491;28;20804;-80
2022/11/18 01:29:45;;;;;;;54.77;18.00;;;5.50;99.90;;;;;;5054828;28;20547;-80
2022/11/18 01:32:12;;;;;;;59.37;17.40;;;5.60;99.90;;;;;;5057310;28;20477;-80
2022/11/18 01:34:39;;;;;;;40.47;15.40;;;5.60;99.90;;;;;;5052606;28;20527;-80
2022/11/18 01:37:06;;;;;;;103.70;25.70;;;5.60;99.90;;;;;;5055521;28;20522;-80
2022/11/18 01:39:35;;;;;;;118.77;24.43;;;5.60;99.90;;;;;;5056833;28;20463;-80
2022/11/18 01:42:02;;;;;;;176.93;32.27;;;5.60;99.90;;;;;;5051651;28;20497;-80
2022/11/18 01:45:03;;;;;;;266.67;39.17;;;5.60;99.90;;;;;;5054930;28;20466;-80
2022/11/18 01:47:35;;;;;;;58.67;16.50;;;5.80;99.90;;;;;;5060642;28;20577;-80
2022/11/18 01:50:04;;;;;;;92.60;20.27;;;5.60;99.90;;;;;;5062893;28;20494;-80
2022/11/18 01:52:34;;;;;;;142.83;29.50;;;5.50;99.90;;;;;;5065897;28;20498;-80
2022/11/18 01:55:07;;;;;;;76.10;18.10;;;5.60;99.90;;;;;;5054813;28;20470;-80
2022/11/18 01:57:35;;;;;;;121.97;25.13;;;5.60;99.90;;;;;;5055241;28;20911;-80
2022/11/18 02:00:05;;;;;;;93.17;16.97;;;5.50;99.90;;;;;;5052116;28;20454;-80
2022/11/18 02:02:34;;;;;;;136.60;28.27;;;5.50;99.90;;;;;;5059198;28;20452;-82
2022/11/18 02:05:02;;;;;;;82.37;20.20;;;5.60;99.90;;;;;;5053800;28;20542;-82
2022/11/18 02:07:29;;;;;;;35.20;12.53;;;5.50;99.90;;;;;;5053650;28;20547;-80
2022/11/18 02:09:59;;;;;;;91.67;18.27;;;5.60;99.90;;;;;;5064713;28;22097;-79
2022/11/18 02:12:27;;;;;;;103.37;18.17;;;5.60;99.90;;;;;;5068200;28;20471;-81
2022/11/18 02:14:54;;;;;;;62.40;17.90;;;5.60;99.90;;;;;;5069860;28;21269;-81
2022/11/18 02:17:33;;;;;;;184.43;31.80;;;5.70;99.90;;;;;;5060816;28;20646;-81
2022/11/18 02:20:37;;;;;;;39.57;13.20;;;5.60;99.90;;;;;;5061096;28;20574;-81
2022/11/18 02:23:37;;;;;;;40.37;13.67;;;5.50;99.90;;;;;;5054235;28;20472;-79
2022/11/18 02:26:34;;;;;;;29.47;12.23;;;5.40;99.90;;;;;;5064351;28;20456;-79
2022/11/18 02:29:07;;;;;;;17.43;9.93;;;5.20;99.90;;;;;;5055431;28;20468;-81
2022/11/18 02:31:41;;;;;;;11.37;9.30;;;5.20;99.90;;;;;;5049909;28;20537;-81
2022/11/18 02:34:18;;;;;;;29.93;12.83;;;5.20;99.90;;;;;;5051315;28;20529;-81
2022/11/18 02:36:53;;;;;;;22.33;11.67;;;5.20;99.90;;;;;;5057623;28;20459;-81
2022/11/18 02:39:24;;;;;;;53.43;17.10;;;5.20;99.90;;;;;;5054571;28;20562;-80
2022/11/18 02:41:56;;;;;;;129.57;27.00;;;5.30;99.90;;;;;;5057107;28;20545;-82
2022/11/18 02:44:26;;;;;;;82.47;21.17;;;5.40;99.90;;;;;;5050454;28;20460;-81
2022/11/18 02:47:00;;;;;;;80.67;18.13;;;5.40;99.90;;;;;;5057858;28;20483;-82
2022/11/18 02:49:32;;;;;;;14.70;10.47;;;5.40;99.90;;;;;;5055308;28;20458;-81
2022/11/18 02:52:01;;;;;;;15.07;10.43;;;5.40;99.90;;;;;;5051902;28;20511;-80
2022/11/18 02:54:30;;;;;;;24.50;11.50;;;5.30;99.90;;;;;;5053561;28;20836;-83
2022/11/18 02:56:58;;;;;;;22.63;11.30;;;5.30;99.90;;;;;;5050444;28;20500;-81
2022/11/18 02:59:28;;;;;;;23.83;11.17;;;5.30;99.90;;;;;;5052930;28;20458;-82
2022/11/18 03:01:55;;;;;;;18.30;10.73;;;5.30;99.90;;;;;;5054714;28;20552;-82
2022/11/18 03:04:25;;;;;;;23.40;11.20;;;5.30;99.90;;;;;;5051294;28;20471;-82
2022/11/18 03:07:02;;;;;;;19.23;10.00;;;5.20;99.90;;;;;;5045604;28;20495;-81
2022/11/18 03:09:33;;;;;;;18.17;11.70;;;5.30;99.90;;;;;;5055913;28;20503;-80
2022/11/18 03:12:11;;;;;;;13.83;10.10;;;5.20;99.90;;;;;;5062603;28;20491;-82
2022/11/18 03:14:48;;;;;;;13.50;9.27;;;5.30;99.90;;;;;;5059006;28;20473;-80
2022/11/18 03:17:23;;;;;;;10.60;9.30;;;5.40;99.90;;;;;;5060881;28;20523;-79
2022/11/18 03:20:03;;;;;;;11.97;8.87;;;5.40;99.90;;;;;;5049625;28;20468;-79
2022/11/18 03:22:37;;;;;;;9.73;8.07;;;5.30;99.90;;;;;;5053437;28;20569;-79
2022/11/18 03:25:08;;;;;;;6.67;6.07;;;5.30;99.90;;;;;;5060700;28;20459;-79
2022/11/18 03:27:41;;;;;;;6.27;5.40;;;5.20;99.90;;;;;;5061029;28;20803;-79
2022/11/18 03:30:16;;;;;;;13.80;6.97;;;5.10;99.90;;;;;;5055055;28;20469;-79
2022/11/18 03:32:50;;;;;;;13.13;8.37;;;5.10;99.90;;;;;;5057161;28;20915;-79
2022/11/18 03:35:22;;;;;;;11.00;7.63;;;5.10;99.90;;;;;;5058740;28;21052;-79
2022/11/18 03:37:50;;;;;;;10.50;7.47;;;5.10;99.90;;;;;;5061372;28;20463;-79
2022/11/18 03:40:21;;;;;;;10.53;7.57;;;5.00;99.90;;;;;;5054085;28;20514;-79
2022/11/18 03:42:51;;;;;;;12.93;7.53;;;5.00;99.90;;;;;;5052837;28;20984;-79
2022/11/18 03:45:24;;;;;;;13.23;8.87;;;5.00;99.90;;;;;;5055490;28;20537;-79
2022/11/18 03:47:54;;;;;;;16.23;9.73;;;5.00;99.90;;;;;;5056489;28;20479;-79
2022/11/18 03:50:26;;;;;;;18.10;10.30;;;5.10;99.90;;;;;;5059346;28;20471;-79
2022/11/18 03:52:54;;;;;;;12.77;9.47;;;5.10;99.90;;;;;;5052985;28;20459;-79
2022/11/18 03:55:25;;;;;;;20.00;10.87;;;5.10;99.90;;;;;;5059961;28;20459;-79
2022/11/18 03:58:00;;;;;;;14.30;9.73;;;5.10;99.90;;;;;;5063776;28;21028;-79
2022/11/18 04:00:33;;;;;;;12.17;9.13;;;5.20;99.90;;;;;;5050036;28;20502;-79
2022/11/18 04:03:00;;;;;;;18.60;10.57;;;5.10;99.90;;;;;;5061886;28;20527;-78
2022/11/18 04:05:29;;;;;;;14.23;10.50;;;5.10;99.90;;;;;;5043620;28;20780;-78
2022/11/18 04:07:58;;;;;;;12.20;9.00;;;5.10;99.90;;;;;;5062391;28;20480;-79
2022/11/18 04:10:30;;;;;;;15.70;10.10;;;5.20;99.90;;;;;;5057805;28;20801;-79
2022/11/18 04:13:04;;;;;;;16.10;10.13;;;5.00;99.90;;;;;;5066509;28;20451;-79
2022/11/18 04:15:33;;;;;;;14.20;8.00;;;5.00;99.90;;;;;;5068235;28;20496;-79
2022/11/18 04:18:00;;;;;;;11.10;8.27;;;5.10;99.90;;;;;;5071707;28;21097;-79
2022/11/18 04:20:28;;;;;;;11.40;7.70;;;5.00;99.90;;;;;;5068686;28;20525;-79
2022/11/18 04:22:55;;;;;;;10.37;8.50;;;5.10;99.90;;;;;;5061788;28;20527;-79
2022/11/18 04:25:23;;;;;;;12.83;8.30;;;5.00;99.90;;;;;;5061650;28;20467;-80
2022/11/18 04:27:50;;;;;;;13.13;8.67;;;4.90;99.90;;;;;;5057467;28;21295;-79
2022/11/18 04:30:18;;;;;;;13.90;9.83;;;4.90;99.90;;;;;;5049913;28;20535;-79
2022/11/18 04:32:47;;;;;;;12.67;8.73;;;4.90;99.90;;;;;;5060453;28;20463;-79
2022/11/18 04:35:14;;;;;;;15.40;8.37;;;5.00;99.90;;;;;;5052840;28;20905;-78
2022/11/18 04:37:41;;;;;;;15.97;9.10;;;5.00;99.90;;;;;;5053033;28;20523;-78
2022/11/18 04:40:10;;;;;;;13.10;8.77;;;4.90;99.90;;;;;;5061620;28;21075;-79
2022/11/18 04:42:37;;;;;;;12.33;10.03;;;4.80;99.90;;;;;;5060274;28;20463;-78
2022/11/18 04:45:05;;;;;;;15.93;9.43;;;4.90;99.90;;;;;;5054598;28;20465;-78
2022/11/18 04:47:32;;;;;;;9.60;8.33;;;4.90;99.90;;;;;;5051170;28;20521;-78
2022/11/18 04:50:01;;;;;;;14.47;9.47;;;4.90;99.90;;;;;;5060388;28;20472;-79
2022/11/18 04:52:27;;;;;;;17.30;10.17;;;5.00;99.90;;;;;;5053703;28;20527;-78
2022/11/18 04:54:54;;;;;;;12.53;8.23;;;5.00;99.90;;;;;;5057928;28;20470;-78
2022/11/18 04:57:21;;;;;;;14.93;9.83;;;5.00;99.90;;;;;;5055880;28;21047;-79
2022/11/18 04:59:48;;;;;;;12.10;8.87;;;5.00;99.90;;;;;;5060763;28;20530;-78
2022/11/18 05:02:15;;;;;;;20.47;10.50;;;5.00;99.90;;;;;;5059207;28;20492;-81
2022/11/18 05:04:42;;;;;;;15.30;9.40;;;5.10;99.90;;;;;;5056274;28;20495;-80
2022/11/18 05:07:15;;;;;;;15.97;10.97;;;5.10;99.90;;;;;;5052263;28;20677;-80
2022/11/18 05:09:42;;;;;;;15.00;8.70;;;5.10;99.90;;;;;;5047999;28;20464;-80
2022/11/18 05:14:57;;;;;;;24.30;10.70;;;5.00;99.90;;;;;;5058053;28;20535;-80
2022/11/18 05:17:24;;;;;;;17.90;11.10;;;5.10;99.90;;;;;;5059375;28;20583;-80
2022/11/18 05:19:51;;;;;;;21.10;10.57;;;5.10;99.90;;;;;;5060682;28;20468;-80
2022/11/18 05:22:19;;;;;;;20.23;11.20;;;5.00;99.90;;;;;;5061004;28;20490;-80
2022/11/18 05:24:46;;;;;;;13.70;8.70;;;5.00;99.90;;;;;;5061848;28;20849;-80
2022/11/18 05:27:14;;;;;;;27.20;11.70;;;5.00;99.90;;;;;;5067048;28;21079;-80
2022/11/18 05:29:41;;;;;;;18.37;9.53;;;5.00;99.90;;;;;;5059390;28;20778;-81
2022/11/18 05:32:08;;;;;;;18.40;10.93;;;5.10;99.90;;;;;;5064249;28;21167;-80
2022/11/18 05:34:35;;;;;;;37.57;13.57;;;5.10;99.90;;;;;;5057788;28;20463;-80
2022/11/18 05:37:02;;;;;;;18.20;10.37;;;5.10;99.90;;;;;;5063947;28;20941;-80
2022/11/18 05:39:31;;;;;;;17.60;11.70;;;5.00;99.90;;;;;;5062922;28;20516;-80
2022/11/18 05:44:43;;;;;;;18.30;9.67;;;5.00;99.90;;;;;;5053416;28;20470;-80
2022/11/18 05:47:10;;;;;;;18.93;9.77;;;5.10;99.90;;;;;;5062957;28;20525;-80
2022/11/18 05:49:37;;;;;;;14.27;9.33;;;5.10;99.90;;;;;;5058477;28;20522;-80
2022/11/18 05:52:04;;;;;;;13.83;9.60;;;5.10;99.90;;;;;;5052071;28;20460;-80
2022/11/18 05:54:32;;;;;;;14.90;11.83;;;5.10;99.90;;;;;;5064770;28;20464;-80
2022/11/18 05:56:59;;;;;;;12.87;9.80;;;5.20;99.90;;;;;;5061020;28;20449;-80
2022/11/18 05:59:26;;;;;;;14.23;10.30;;;5.20;99.90;;;;;;5058011;28;20463;-79
2022/11/18 06:01:59;;;;;;;17.07;9.73;;;5.20;99.90;;;;;;5060099;28;20493;-79
2022/11/18 06:04:29;;;;;;;18.30;9.80;;;5.20;99.90;;;;;;5055254;28;20493;-80
2022/11/18 06:07:03;;;;;;;16.70;9.27;;;5.30;99.90;;;;;;5054166;28;20471;-80
2022/11/18 06:09:36;;;;;;;18.47;10.67;;;5.30;99.90;;;;;;5051848;28;20457;-80
2022/11/18 06:12:05;;;;;;;17.60;9.73;;;5.30;99.90;;;;;;5066822;28;21110;-80
2022/11/18 06:14:37;;;;;;;11.40;8.87;;;5.40;99.90;;;;;;5061776;28;20910;-79
2022/11/18 06:17:09;;;;;;;15.10;10.83;;;5.50;99.90;;;;;;5064276;28;20536;-79
2022/11/18 06:19:36;;;;;;;14.40;9.33;;;5.40;99.90;;;;;;5056091;28;20464;-80
2022/11/18 06:22:04;;;;;;;19.03;9.70;;;5.40;99.90;;;;;;5062988;28;20914;-79
2022/11/18 06:24:33;;;;;;;16.43;10.13;;;5.40;99.90;;;;;;5051577;28;20441;-80
2022/11/18 06:27:00;;;;;;;17.90;10.57;;;5.40;99.90;;;;;;5047054;28;20470;-79
2022/11/18 06:29:28;;;;;;;20.43;9.83;;;5.40;99.90;;;;;;5046081;28;21454;-79
2022/11/18 06:31:55;;;;;;;15.60;10.40;;;5.40;99.90;;;;;;5058688;28;20472;-79
2022/11/18 06:34:22;;;;;;;18.93;11.03;;;5.30;99.90;;;;;;5049728;28;20477;-79
2022/11/18 06:36:49;;;;;;;18.23;9.93;;;5.30;99.90;;;;;;5061362;28;20493;-80
2022/11/18 06:39:16;;;;;;;12.67;9.20;;;5.40;99.90;;;;;;5058774;28;20458;-79
2022/11/18 06:41:45;;;;;;;12.00;9.30;;;5.30;99.90;;;;;;5059288;28;20471;-79
2022/11/18 06:44:11;;;;;;;13.47;8.90;;;5.30;99.90;;;;;;5057389;28;20520;-79
2022/11/18 06:46:56;;;;;;;12.97;8.23;;;5.30;99.90;;;;;;5053419;28;21025;-79
2022/11/18 06:49:25;;;;;;;10.60;8.17;;;5.40;99.90;;;;;;5045841;28;20541;-79
2022/11/18 06:51:52;;;;;;;9.80;7.50;;;5.40;99.90;;;;;;5054527;28;21066;-79
2022/11/18 06:54:19;;;;;;;12.47;9.30;;;5.50;99.90;;;;;;5060905;28;22366;-81
2022/11/18 06:56:48;;;;;;;15.53;9.40;;;5.40;99.90;;;;;;5051708;28;20918;-79
2022/11/18 06:59:20;;;;;;;16.00;10.00;;;5.60;99.90;;;;;;5058616;28;20456;-79
2022/11/18 07:01:48;;;;;;;14.63;9.23;;;5.60;99.90;;;;;;5053867;28;21159;-80
2022/11/18 07:04:15;;;;;;;13.83;8.43;;;5.50;99.90;;;;;;5054842;28;20518;-80
2022/11/18 07:06:42;;;;;;;12.67;9.50;;;5.50;99.90;;;;;;5044842;28;21267;-80
2022/11/18 07:09:09;;;;;;;16.13;10.50;;;5.50;99.90;;;;;;5059856;28;20544;-79
2022/11/18 07:11:37;;;;;;;18.20;12.80;;;5.70;99.90;;;;;;5055274;28;20524;-79
2022/11/18 07:14:05;;;;;;;39.80;27.70;;;5.70;99.90;;;;;;5057571;28;20460;-80
2022/11/18 07:16:35;;;;;;;63.40;44.80;;;5.60;99.90;;;;;;5054241;28;20544;-80
2022/11/18 07:19:07;;;;;;;32.53;26.57;;;5.60;99.90;;;;;;5051386;28;20574;-80
2022/11/18 07:21:34;;;;;;;48.67;37.23;;;5.50;99.90;;;;;;5047834;28;20521;-80
2022/11/18 07:24:01;;;;;;;23.43;17.47;;;5.50;99.90;;;;;;5049047;28;20463;-79
2022/11/18 07:26:28;;;;;;;37.17;26.73;;;5.50;99.90;;;;;;5047844;28;20934;-80
2022/11/18 07:28:55;;;;;;;13.70;10.30;;;5.60;99.90;;;;;;5055911;28;20962;-81
2022/11/18 07:31:23;;;;;;;16.03;10.80;;;5.50;99.90;;;;;;5049850;28;20464;-80
2022/11/18 07:33:52;;;;;;;35.43;24.87;;;5.50;99.90;;;;;;5049179;28;20849;-81
2022/11/18 07:36:21;;;;;;;14.23;12.27;;;5.60;99.90;;;;;;5055531;28;20976;-80
2022/11/18 07:38:48;;;;;;;16.30;13.27;;;5.60;99.90;;;;;;5049179;28;20611;-80
2022/11/18 07:41:17;;;;;;;16.57;11.63;;;5.60;99.90;;;;;;5051169;28;21109;-80
2022/11/18 07:43:45;;;;;;;15.87;12.47;;;5.60;99.90;;;;;;5049803;28;20475;-80
2022/11/18 07:46:15;;;;;;;16.93;9.73;;;5.70;99.90;;;;;;5046284;28;20496;-79
2022/11/18 07:48:45;;;;;;;13.80;11.10;;;5.70;99.90;;;;;;5048850;28;21119;-80
2022/11/18 07:51:13;;;;;;;17.40;14.77;;;5.80;99.90;;;;;;5053789;28;20468;-79
2022/11/18 07:53:40;;;;;;;15.77;11.23;;;5.80;99.90;;;;;;5047784;28;20963;-80
2022/11/18 07:56:08;;;;;;;13.53;10.07;;;5.80;99.90;;;;;;5047630;28;20476;-80
2022/11/18 07:58:36;;;;;;;16.97;12.27;;;5.90;99.90;;;;;;5046648;28;21002;-80
2022/11/18 08:01:08;;;;;;;17.33;12.73;;;5.90;99.90;;;;;;5048646;28;20496;-79
2022/11/18 08:03:35;;;;;;;13.50;11.30;;;6.00;99.90;;;;;;5047843;28;20455;-80
2022/11/18 08:06:05;;;;;;;18.50;12.93;;;6.00;99.90;;;;;;5052425;28;20904;-80
2022/11/18 08:08:32;;;;;;;16.67;13.03;;;6.10;99.90;;;;;;5051648;28;20993;-81
2022/11/18 08:11:00;;;;;;;10.70;8.67;;;6.10;99.90;;;;;;5053236;28;21245;-80
2022/11/18 08:13:29;;;;;;;12.83;9.47;;;6.20;99.90;;;;;;5050500;28;20536;-80
2022/11/18 08:15:57;;;;;;;12.37;11.37;;;6.30;99.90;;;;;;5054342;28;20775;-82
2022/11/18 08:18:24;;;;;;;8.97;8.13;;;6.40;99.90;;;;;;5056188;28;20518;-80
2022/11/18 08:20:51;;;;;;;6.33;5.80;;;6.70;99.90;;;;;;5051794;28;20520;-80
2022/11/18 08:23:20;;;;;;;5.53;3.83;;;6.80;99.90;;;;;;5056719;28;20466;-79
2022/11/18 08:25:47;;;;;;;4.40;4.00;;;6.90;99.90;;;;;;5048932;28;21041;-79
2022/11/18 08:28:15;;;;;;;5.33;4.87;;;7.00;99.90;;;;;;5046827;28;20530;-80
2022/11/18 08:30:42;;;;;;;2.47;2.27;;;7.10;99.90;;;;;;5046354;28;20872;-79
2022/11/18 08:33:09;;;;;;;1.90;1.70;;;7.10;99.90;;;;;;5050935;28;20453;-79
2022/11/18 08:35:36;;;;;;;2.70;2.50;;;7.10;99.90;;;;;;5049341;28;20953;-79
2022/11/18 08:38:03;;;;;;;6.67;4.53;;;7.20;99.90;;;;;;5049831;28;20465;-79
2022/11/18 08:40:31;;;;;;;6.17;3.37;;;7.20;99.90;;;;;;5053667;28;20516;-79
2022/11/18 08:42:58;;;;;;;6.47;3.80;;;7.20;99.90;;;;;;5051644;28;20925;-80
2022/11/18 08:45:25;;;;;;;7.77;5.50;;;7.30;99.90;;;;;;5050712;28;20459;-79
2022/11/18 08:47:52;;;;;;;4.27;2.47;;;7.30;99.90;;;;;;5061547;28;20546;-79
2022/11/18 08:50:19;;;;;;;2.57;1.43;;;7.30;99.90;;;;;;5053437;28;21020;-79
2022/11/18 08:52:46;;;;;;;4.50;2.80;;;7.30;99.90;;;;;;5056669;28;20468;-80
2022/11/18 08:55:13;;;;;;;1.70;0.87;;;7.30;99.90;;;;;;5053303;28;20498;-79
2022/11/18 08:57:41;;;;;;;2.03;1.00;;;7.40;99.90;;;;;;5059878;28;20464;-79
2022/11/18 09:00:10;;;;;;;1.57;1.17;;;7.30;99.90;;;;;;5062077;28;20556;-79
2022/11/18 09:02:37;;;;;;;1.90;1.20;;;7.30;99.90;;;;;;5058484;28;20793;-79
2022/11/18 09:05:04;;;;;;;1.30;0.90;;;7.30;99.90;;;;;;5062376;28;21067;-79
2022/11/18 09:07:31;;;;;;;0.70;0.60;;;7.30;99.90;;;;;;5060817;28;20496;-80
2022/11/18 09:09:58;;;;;;;1.47;0.43;;;7.30;99.90;;;;;;5057233;28;21094;-80
2022/11/18 09:12:25;;;;;;;0.80;0.63;;;7.40;99.90;;;;;;5056474;28;20464;-80
2022/11/18 09:14:53;;;;;;;0.60;0.50;;;7.50;99.90;;;;;;5048957;28;20525;-80
2022/11/18 09:17:20;;;;;;;0.97;0.70;;;7.50;99.90;;;;;;5055220;28;20483;-79
2022/11/18 09:19:47;;;;;;;1.23;0.60;;;7.50;99.90;;;;;;5052628;28;21085;-79
2022/11/18 09:22:14;;;;;;;1.37;0.90;;;7.60;99.90;;;;;;5053403;28;20616;-79
2022/11/18 09:24:42;;;;;;;1.43;1.17;;;7.60;99.90;;;;;;5053722;28;20534;-79
2022/11/18 09:27:09;;;;;;;1.37;0.77;;;7.50;99.90;;;;;;5057079;28;20960;-79
2022/11/18 09:29:36;;;;;;;1.53;0.83;;;7.60;99.90;;;;;;5059311;28;20490;-79
2022/11/18 09:32:05;;;;;;;0.90;0.50;;;7.60;99.90;;;;;;5062306;28;20464;-79
2022/11/18 09:34:34;;;;;;;0.60;0.50;;;7.60;99.90;;;;;;5054082;28;20468;-80
2022/11/18 09:37:04;;;;;;;0.90;0.50;;;7.70;99.90;;;;;;5058655;28;20513;-79
2022/11/18 09:39:35;;;;;;;2.30;0.83;;;7.70;99.90;;;;;;5064555;28;20478;-79
2022/11/18 09:42:20;;;;;;;0.60;0.40;;;7.70;99.90;;;;;;5060981;28;20505;-81
2022/11/18 09:45:00;;;;;;;0.40;0.40;;;7.60;99.90;;;;;;5055945;28;20469;-81
2022/11/18 09:47:30;;;;;;;0.57;0.40;;;7.60;99.90;;;;;;5061487;28;22403;-81
2022/11/18 09:49:59;;;;;;;0.50;0.40;;;7.70;99.90;;;;;;5053257;28;20556;-81
2022/11/18 09:52:29;;;;;;;0.60;0.40;;;7.60;99.90;;;;;;5050893;28;20467;-81
2022/11/18 09:54:56;;;;;;;0.60;0.50;;;7.60;99.90;;;;;;5059884;28;20467;-79
2022/11/18 09:57:26;;;;;;;1.40;0.40;;;7.60;99.90;;;;;;5051219;28;20468;-79
2022/11/18 09:59:53;;;;;;;0.90;0.60;;;7.60;99.90;;;;;;5057542;28;20536;-79
2022/11/18 10:02:42;;;;;;;0.50;0.50;;;7.60;99.90;;;;;;5056514;28;20470;-79
2022/11/18 10:05:16;;;;;;;0.80;0.57;;;7.70;99.90;;;;;;5056162;28;20459;-79
2022/11/18 10:07:52;;;;;;;0.77;0.40;;;7.80;99.90;;;;;;5054419;28;20476;-79
2022/11/18 10:10:24;;;;;;;0.60;0.40;;;7.80;99.90;;;;;;5053909;28;22304;-79
2022/11/18 10:12:56;;;;;;;0.50;0.40;;;7.70;99.90;;;;;;5055096;28;20526;-79
2022/11/18 10:15:33;;;;;;;0.90;0.50;;;7.70;99.90;;;;;;5053251;28;20471;-79
2022/11/18 10:18:12;;;;;;;0.83;0.47;;;7.60;99.90;;;;;;5052550;28;22441;-79
2022/11/18 10:20:49;;;;;;;0.73;0.40;;;7.60;99.90;;;;;;5049662;28;20470;-79
2022/11/18 10:23:21;;;;;;;0.60;0.40;;;7.70;99.90;;;;;;5055359;28;20487;-79
2022/11/18 10:25:48;;;;;;;0.53;0.37;;;7.70;99.90;;;;;;5063946;28;20850;-79
2022/11/18 10:28:20;;;;;;;0.70;0.40;;;7.80;99.90;;;;;;5057784;28;20460;-79
2022/11/18 10:30:48;;;;;;;0.50;0.30;;;7.90;99.90;;;;;;5059232;28;20797;-79
2022/11/18 10:33:25;;;;;;;1.50;0.90;;;8.00;99.90;;;;;;5049319;28;20557;-79
2022/11/18 10:36:10;;;;;;;0.67;0.50;;;8.10;99.90;;;;;;5051016;28;20461;-80
2022/11/18 10:38:38;;;;;;;1.53;1.10;;;8.20;99.90;;;;;;5053780;28;20467;-79
2022/11/18 10:41:09;;;;;;;1.07;0.97;;;8.30;99.90;;;;;;5054423;28;20491;-80
2022/11/18 10:43:48;;;;;;;0.70;0.60;;;8.50;99.90;;;;;;5050726;28;20493;-80
2022/11/18 10:46:18;;;;;;;1.23;0.83;;;8.60;99.90;;;;;;5052942;28;20488;-80
2022/11/18 10:48:47;;;;;;;0.50;0.50;;;8.60;99.90;;;;;;5059618;28;20939;-80
2022/11/18 10:51:23;;;;;;;0.83;0.60;;;8.70;99.90;;;;;;5054059;28;20527;-80
2022/11/18 10:53:50;;;;;;;0.90;0.63;;;8.70;99.90;;;;;;5053723;28;20467;-79
2022/11/18 10:56:17;;;;;;;0.60;0.60;;;8.70;99.90;;;;;;5054617;28;20552;-79
2022/11/18 10:58:47;;;;;;;0.70;0.50;;;8.80;99.90;;;;;;5053667;28;20908;-80
2022/11/18 11:01:21;;;;;;;0.70;0.70;;;8.70;99.90;;;;;;5051819;28;20468;-80
2022/11/18 11:04:02;;;;;;;1.23;0.50;;;8.60;99.90;;;;;;5047339;28;20470;-80
2022/11/18 11:06:36;;;;;;;0.70;0.50;;;8.60;99.90;;;;;;5056863;28;20533;-80
2022/11/18 11:09:09;;;;;;;1.07;0.73;;;8.60;99.90;;;;;;5061146;28;20540;-80
2022/11/18 11:11:38;;;;;;;0.50;0.40;;;8.70;99.90;;;;;;5056291;28;20460;-80
2022/11/18 11:14:18;;;;;;;0.60;0.60;;;8.70;99.90;;;;;;5057342;28;20506;-79
2022/11/18 11:16:53;;;;;;;0.60;0.50;;;8.80;99.90;;;;;;5049912;28;20471;-80
2022/11/18 11:19:25;;;;;;;0.60;0.53;;;8.90;99.90;;;;;;5050659;28;20529;-80
2022/11/18 11:21:52;;;;;;;0.40;0.30;;;9.00;99.90;;;;;;5052645;28;21494;-80
2022/11/18 11:24:27;;;;;;;0.50;0.40;;;9.10;99.90;;;;;;5053615;28;20514;-80
2022/11/18 11:27:06;;;;;;;0.40;0.40;;;9.10;99.90;;;;;;5049700;28;20485;-80
2022/11/18 11:30:06;;;;;;;0.50;0.40;;;9.20;99.90;;;;;;5052924;28;20515;-80
2022/11/18 11:33:00;;;;;;;0.60;0.50;;;9.20;99.90;;;;;;5043758;28;20460;-80
2022/11/18 11:35:33;;;;;;;0.87;0.37;;;9.10;99.90;;;;;;5050708;28;20444;-79
2022/11/18 11:38:04;;;;;;;0.47;0.37;;;9.10;99.90;;;;;;5054624;28;20464;-79
2022/11/18 11:40:39;;;;;;;0.43;0.40;;;9.10;99.90;;;;;;5060047;28;20532;-79
2022/11/18 11:43:24;;;;;;;0.40;0.40;;;9.10;99.90;;;;;;5051049;28;20948;-79
2022/11/18 11:46:14;;;;;;;0.50;0.40;;;9.10;99.90;;;;;;5050500;28;20468;-79
2022/11/18 11:48:51;;;;;;;0.70;0.47;;;9.00;99.90;;;;;;5053089;28;21213;-79
2022/11/18 11:51:32;;;;;;;0.60;0.53;;;9.00;99.90;;;;;;5055419;28;21087;-79
2022/11/18 11:54:30;;;;;;;0.60;0.60;;;9.00;99.90;;;;;;5049580;28;20459;-79
2022/11/18 11:57:02;;;;;;;0.73;0.60;;;9.00;99.90;;;;;;5054566;28;20537;-80
2022/11/18 11:59:34;;;;;;;0.50;0.47;;;8.90;99.90;;;;;;5056382;28;20529;-79
2022/11/18 12:02:23;;;;;;;0.40;0.30;;;8.80;99.90;;;;;;5058145;28;20462;-79
2022/11/18 12:04:52;;;;;;;0.50;0.30;;;8.80;99.90;;;;;;5051457;28;20940;-79
2022/11/18 12:07:25;;;;;;;0.53;0.50;;;8.80;99.90;;;;;;5052962;28;20460;-79
2022/11/18 12:10:08;;;;;;;0.50;0.40;;;8.90;99.90;;;;;;5050244;28;20496;-79
2022/11/18 12:12:44;;;;;;;0.40;0.40;;;8.90;99.90;;;;;;5050986;28;20526;-79
2022/11/18 12:15:20;;;;;;;0.67;0.50;;;8.90;99.90;;;;;;5052369;28;20463;-79
2022/11/18 12:17:54;;;;;;;0.40;0.33;;;8.90;99.90;;;;;;5060066;28;20479;-78
2022/11/18 12:20:43;;;;;;;0.60;0.40;;;8.90;99.90;;;;;;5052240;28;20538;-79
2022/11/18 12:23:17;;;;;;;2.20;0.40;;;8.80;99.90;;;;;;5054104;28;20552;-78
2022/11/18 12:25:56;;;;;;;0.40;0.30;;;8.70;99.90;;;;;;5057498;28;20521;-78
2022/11/18 12:28:29;;;;;;;0.50;0.40;;;8.70;99.90;;;;;;5052762;28;20475;-78
2022/11/18 12:31:33;;;;;;;1.17;0.40;;;8.70;99.90;;;;;;5055911;28;20480;-79
2022/11/18 12:34:20;;;;;;;0.40;0.40;;;8.70;99.90;;;;;;5064545;28;20509;-80
2022/11/18 12:36:47;;;;;;;0.40;0.30;;;8.60;99.90;;;;;;5053496;28;20464;-81
2022/11/18 12:39:57;;;;;;;1.00;0.37;;;8.60;99.90;;;;;;5057330;28;20553;-80
2022/11/18 12:45:57;;;;;;;0.83;0.50;;;8.50;99.90;;;;;;5053716;28;20471;-78
2022/11/18 12:48:48;;;;;;;0.40;0.40;;;8.50;99.90;;;;;;5047399;28;20550;-79
2022/11/18 12:51:48;;;;;;;0.50;0.40;;;8.40;99.90;;;;;;5055617;28;20573;-79
2022/11/18 12:54:26;;;;;;;0.50;0.40;;;8.40;99.90;;;;;;5051697;28;20513;-79
2022/11/18 12:56:54;;;;;;;0.43;0.40;;;8.40;99.90;;;;;;5046872;28;20467;-80
2022/11/18 12:59:31;;;;;;;0.40;0.30;;;8.50;99.90;;;;;;5050973;28;20461;-77
2022/11/18 13:02:27;;;;;;;1.03;0.30;;;8.50;99.90;;;;;;5045570;28;20472;-80
2022/11/18 13:05:06;;;;;;;0.83;0.50;;;8.40;99.90;;;;;;5054419;28;20919;-80
2022/11/18 13:10:26;;;;;;;0.70;0.50;;;8.40;99.90;;;;;;5047806;28;20499;-78
2022/11/18 13:12:54;;;;;;;1.30;1.10;;;8.40;99.90;;;;;;5051822;28;20586;-78
2022/11/18 13:18:13;;;;;;;0.60;0.43;;;8.40;99.90;;;;;;5048505;28;20545;-78
2022/11/18 13:20:41;;;;;;;0.40;0.40;;;8.40;99.90;;;;;;5046784;28;20500;-77
2022/11/18 13:26:15;;;;;;;0.40;0.30;;;8.30;99.90;;;;;;5050982;28;20515;-78
2022/11/18 13:28:52;;;;;;;0.50;0.30;;;8.30;99.90;;;;;;5049802;28;20514;-78
2022/11/18 13:31:27;;;;;;;0.40;0.30;;;8.20;99.90;;;;;;5045162;28;20586;-80